Time;durP1;ratioP1;P1;durP2;ratioP2;P2;SDS_P1;SDS_P2;PMS_P1;PMS_P2;Temp;Humidity;BMP_temperature;BMP_pressure;BME280_temperature;BME280_humidity;BME280_pressure;Samples;Min_cycle;Max_cycle;Signal;HPM_P1;HPM_P2
2022/05/09 00:00:26;;;;;;;0.10;0.10;;;;;;;12.88;55.18;102915.53;5135768;27;20016;-80
2022/05/09 00:02:52;;;;;;;0.10;0.10;;;;;;;12.83;55.86;102911.97;5122211;27;20047;-81
2022/05/09 00:05:21;;;;;;;0.10;0.10;;;;;;;12.82;55.17;102904.00;5116476;28;20038;-81
2022/05/09 00:07:47;;;;;;;0.10;0.10;;;;;;;12.77;55.94;102898.66;5115036;22;20048;-84
2022/05/09 00:10:17;;;;;;;0.00;0.00;;;;;;;12.75;56.52;102911.97;5081890;28;20051;-84
2022/05/09 00:12:44;;;;;;;0.00;0.00;;;;;;;12.71;55.67;102904.88;5081123;28;20036;-84
2022/05/09 00:15:11;;;;;;;0.10;0.10;;;;;;;12.68;56.11;102904.84;5083588;28;20043;-83
2022/05/09 00:17:37;;;;;;;0.10;0.10;;;;;;;12.67;55.50;102903.06;5082768;28;20024;-83
2022/05/09 00:20:05;;;;;;;0.10;0.10;;;;;;;12.61;55.86;102901.28;5082570;28;20020;-84
2022/05/09 00:22:41;;;;;;;0.93;0.90;;;;;;;12.60;55.17;102904.81;5082732;28;20039;-84
2022/05/09 00:25:07;;;;;;;0.57;0.57;;;;;;;12.58;55.42;102906.56;5081809;28;20039;-83
2022/05/09 00:27:33;;;;;;;0.28;0.28;;;;;;;12.53;56.02;102894.13;5082999;28;20072;-83
2022/05/09 00:29:59;;;;;;;0.43;0.43;;;;;;;12.50;55.66;102897.69;5084909;28;20054;-82
2022/05/09 00:32:25;;;;;;;0.10;0.10;;;;;;;12.51;55.52;102895.88;5082810;28;20036;-84
2022/05/09 00:34:51;;;;;;;0.10;0.10;;;;;;;12.45;56.07;102891.44;5083893;28;20040;-83
2022/05/09 00:37:18;;;;;;;0.10;0.10;;;;;;;12.40;55.92;102890.50;5079818;28;20119;-83
2022/05/09 00:39:44;;;;;;;0.00;0.00;;;;;;;12.38;56.00;102886.97;5082139;28;20027;-83
2022/05/09 00:42:12;;;;;;;0.10;0.10;;;;;;;12.35;55.91;102893.16;5083470;28;20095;-83
2022/05/09 00:44:39;;;;;;;0.08;0.08;;;;;;;12.33;55.80;102884.28;5084105;28;20395;-84
2022/05/09 00:47:06;;;;;;;0.10;0.10;;;;;;;12.29;55.63;102880.72;5085674;28;20029;-83
2022/05/09 00:52:25;;;;;;;0.10;0.10;;;;;;;12.29;56.33;102882.50;5071764;28;20433;-78
2022/05/09 00:54:57;;;;;;;0.00;0.00;;;;;;;12.24;56.22;102879.81;5072491;28;20039;-79
2022/05/09 01:00:29;;;;;;;0.00;0.00;;;;;;;12.19;56.20;102886.00;5129316;27;20392;-79
2022/05/09 01:03:04;;;;;;;0.08;0.08;;;;;;;12.13;56.41;102881.53;5092117;28;20055;-79
2022/05/09 01:05:31;;;;;;;0.00;0.00;;;;;;;12.07;57.19;102876.16;5111627;28;20024;-78
2022/05/09 01:07:58;;;;;;;0.10;0.10;;;;;;;12.04;56.55;102878.81;5109001;28;20073;-81
2022/05/09 01:10:30;;;;;;;0.10;0.10;;;;;;;12.02;56.67;102873.47;5112479;28;20036;-77
2022/05/09 01:12:59;;;;;;;0.20;0.20;;;;;;;11.98;56.81;102874.34;5112016;28;20028;-78
2022/05/09 01:15:26;;;;;;;0.10;0.10;;;;;;;11.92;57.36;102867.16;5112188;28;20304;-79
2022/05/09 01:17:52;;;;;;;0.10;0.10;;;;;;;11.91;56.88;102864.50;5113462;28;20518;-79
2022/05/09 01:20:18;;;;;;;0.10;0.10;;;;;;;11.87;56.59;102876.88;5114938;28;20107;-79
2022/05/09 01:22:44;;;;;;;0.85;0.85;;;;;;;11.86;56.30;102876.88;5112087;28;20030;-78
2022/05/09 01:25:13;;;;;;;0.10;0.10;;;;;;;11.83;56.68;102869.78;5111765;28;20031;-78
2022/05/09 01:27:43;;;;;;;0.10;0.10;;;;;;;11.81;56.62;102869.75;5111710;28;20023;-78
2022/05/09 01:38:26;;;;;;;0.10;0.10;;;;;;;11.80;57.00;102864.41;5072115;28;20142;-77
2022/05/09 01:40:52;;;;;;;0.10;0.10;;;;;;;11.68;57.48;102861.69;5085439;28;20036;-78
2022/05/09 01:43:41;;;;;;;0.10;0.10;;;;;;;11.75;57.69;102858.19;5092103;28;20032;-78
2022/05/09 01:46:11;;;;;;;0.00;0.00;;;;;;;11.67;57.39;102859.91;5067428;28;20029;-79
2022/05/09 01:51:25;;;;;;;0.10;0.10;;;;;;;11.60;56.82;102864.28;5050826;28;20040;-79
2022/05/09 01:53:52;;;;;;;0.05;0.05;;;;;;;11.56;57.62;102858.03;5052133;28;20086;-78
2022/05/09 01:56:26;;;;;;;3.72;0.57;;;;;;;11.56;57.79;102852.72;5051327;28;20025;-78
2022/05/09 01:58:52;;;;;;;0.10;0.10;;;;;;;11.51;57.52;102854.47;5051467;28;20033;-79
2022/05/09 02:01:22;;;;;;;0.00;0.00;;;;;;;11.50;57.54;102858.00;5058594;28;20121;-79
2022/05/09 02:03:49;;;;;;;0.00;0.00;;;;;;;11.48;57.39;102849.16;5068776;28;20391;-80
2022/05/09 02:06:17;;;;;;;0.05;0.05;;;;;;;11.47;57.06;102856.19;5065317;28;20025;-78
2022/05/09 02:08:44;;;;;;;0.00;0.00;;;;;;;11.46;57.26;102850.88;5051883;28;20026;-78
2022/05/09 02:11:11;;;;;;;0.10;0.10;;;;;;;11.43;57.10;102850.88;5050987;28;20037;-80
2022/05/09 02:13:37;;;;;;;0.00;0.00;;;;;;;11.42;57.63;102849.09;5051585;28;20025;-80
2022/05/09 02:16:04;;;;;;;0.10;0.10;;;;;;;11.38;58.16;102847.31;5052143;28;20068;-79
2022/05/09 02:18:31;;;;;;;0.10;0.10;;;;;;;11.36;57.99;102849.03;5064371;28;20555;-80
2022/05/09 02:20:58;;;;;;;0.10;0.10;;;;;;;11.32;57.86;102846.34;5069613;28;20041;-80
2022/05/09 02:23:24;;;;;;;0.00;0.00;;;;;;;11.30;57.81;102847.19;5063203;28;20033;-79
2022/05/09 02:25:51;;;;;;;0.10;0.10;;;;;;;11.28;58.00;102841.88;5051244;28;20040;-78
2022/05/09 02:28:17;;;;;;;0.10;0.10;;;;;;;11.27;57.63;102844.53;5064963;28;20532;-79
2022/05/09 02:30:43;;;;;;;0.10;0.10;;;;;;;11.24;57.69;102850.72;5062853;28;20040;-79
2022/05/09 02:33:11;;;;;;;0.10;0.10;;;;;;;11.23;57.39;102843.63;5071277;28;20052;-80
2022/05/09 02:35:39;;;;;;;0.50;0.50;;;;;;;11.20;57.74;102837.38;5071378;28;20021;-80
2022/05/09 02:38:06;;;;;;;0.10;0.10;;;;;;;11.17;57.94;102843.56;5071003;28;20031;-80
2022/05/09 02:40:33;;;;;;;0.10;0.10;;;;;;;11.15;57.52;102845.28;5061907;28;20036;-80
2022/05/09 02:43:00;;;;;;;0.30;0.30;;;;;;;11.13;57.52;102841.75;5051562;28;20063;-78
2022/05/09 02:45:27;;;;;;;0.00;0.00;;;;;;;11.11;57.64;102841.72;5063145;28;20052;-79
2022/05/09 02:47:54;;;;;;;0.10;0.10;;;;;;;11.07;57.81;102847.00;5066340;28;20505;-81
2022/05/09 02:50:21;;;;;;;0.00;0.00;;;;;;;11.04;58.16;102841.66;5058619;28;20040;-80
2022/05/09 02:52:49;;;;;;;2.15;1.95;;;;;;;11.03;57.95;102839.88;5057545;28;20063;-81
2022/05/09 02:55:16;;;;;;;0.03;0.03;;;;;;;11.02;57.66;102840.75;5054250;28;20063;-80
2022/05/09 02:57:42;;;;;;;0.10;0.10;;;;;;;10.98;57.73;102832.75;5047837;28;20037;-81
2022/05/09 03:00:14;;;;;;;0.10;0.10;;;;;;;10.97;58.22;102830.09;5049227;28;20559;-80
2022/05/09 03:02:40;;;;;;;0.10;0.10;;;;;;;10.93;58.52;102834.47;5051521;28;20135;-80
2022/05/09 03:05:07;;;;;;;0.10;0.10;;;;;;;10.93;58.16;102838.88;5052048;28;20155;-81
2022/05/09 03:07:34;;;;;;;0.00;0.00;;;;;;;10.89;58.40;102834.41;5048955;28;20021;-81
2022/05/09 03:10:00;;;;;;;0.10;0.10;;;;;;;10.88;58.05;102828.25;5059030;28;20397;-80
2022/05/09 03:12:26;;;;;;;0.10;0.10;;;;;;;10.87;57.62;102833.53;5048617;28;20033;-79
2022/05/09 03:14:52;;;;;;;0.10;0.10;;;;;;;10.85;58.47;102830.84;5049959;28;20457;-80
2022/05/09 03:17:19;;;;;;;0.00;0.00;;;;;;;10.82;58.42;102818.44;5055519;28;20188;-80
2022/05/09 03:19:45;;;;;;;0.10;0.10;;;;;;;10.80;58.37;102824.59;5053184;28;20043;-79
2022/05/09 03:22:12;;;;;;;0.03;0.03;;;;;;;10.80;58.78;102827.25;5050036;28;20070;-79
2022/05/09 03:24:38;;;;;;;0.03;0.03;;;;;;;10.78;58.17;102819.28;5056861;28;20430;-80
2022/05/09 03:27:06;;;;;;;0.10;0.10;;;;;;;10.78;58.79;102821.03;5049364;28;20116;-80
2022/05/09 03:29:33;;;;;;;0.00;0.00;;;;;;;10.75;58.69;102819.25;5056578;28;20029;-80
2022/05/09 03:32:00;;;;;;;0.10;0.10;;;;;;;10.75;58.37;102815.72;5041805;28;20647;-79
2022/05/09 03:34:26;;;;;;;0.10;0.10;;;;;;;10.73;58.68;102815.72;5056910;28;20498;-80
2022/05/09 03:36:53;;;;;;;0.10;0.10;;;;;;;10.74;58.12;102821.88;5057079;28;20086;-80
2022/05/09 03:39:19;;;;;;;0.73;0.73;;;;;;;10.72;58.32;102813.03;5057454;28;20033;-80
2022/05/09 03:41:45;;;;;;;0.10;0.10;;;;;;;10.71;58.37;102800.66;5056692;28;20033;-80
2022/05/09 03:44:11;;;;;;;0.10;0.10;;;;;;;10.68;58.79;102810.34;5054154;28;20079;-80
2022/05/09 03:46:37;;;;;;;0.10;0.10;;;;;;;10.66;58.46;102804.13;5057444;28;20137;-79
2022/05/09 03:49:04;;;;;;;0.10;0.10;;;;;;;10.68;58.15;102807.69;5045287;28;20041;-80
2022/05/09 03:51:30;;;;;;;0.10;0.10;;;;;;;10.67;58.62;102813.00;5050323;28;20533;-80
2022/05/09 03:53:56;;;;;;;0.10;0.10;;;;;;;10.65;58.85;102812.97;5054243;28;20048;-81
2022/05/09 03:56:23;;;;;;;6.60;2.83;;;;;;;10.64;58.64;102805.88;5055860;28;20033;-80
2022/05/09 03:58:49;;;;;;;0.05;0.05;;;;;;;10.63;58.38;102812.06;5055474;28;20043;-80
2022/05/09 04:01:15;;;;;;;0.10;0.10;;;;;;;10.64;58.40;102808.53;5054177;28;20057;-80
2022/05/09 04:03:41;;;;;;;0.10;0.10;;;;;;;10.63;58.31;102801.44;5055640;28;20043;-80
2022/05/09 04:06:08;;;;;;;0.03;0.03;;;;;;;10.61;58.62;102800.53;5049433;28;20033;-79
2022/05/09 04:08:34;;;;;;;0.10;0.10;;;;;;;10.63;58.55;102806.75;5055119;28;20037;-80
2022/05/09 04:11:00;;;;;;;0.00;0.00;;;;;;;10.60;58.41;102804.06;5055258;28;20142;-80
2022/05/09 04:13:26;;;;;;;0.17;0.17;;;;;;;10.59;58.12;102794.34;5053323;28;20121;-80
2022/05/09 04:18:43;;;;;;;0.08;0.08;;;;;;;10.59;59.13;102799.66;5053944;28;20519;-80
2022/05/09 04:21:12;;;;;;;0.05;0.05;;;;;;;10.57;58.92;102789.91;5054981;28;20123;-80
2022/05/09 04:23:38;;;;;;;0.10;0.10;;;;;;;10.55;59.01;102800.47;5040655;28;20513;-80
2022/05/09 04:26:05;;;;;;;0.10;0.10;;;;;;;10.55;58.86;102795.16;5043412;28;20560;-80
2022/05/09 04:28:31;;;;;;;0.10;0.10;;;;;;;10.55;58.67;102794.28;5047217;28;20132;-80
2022/05/09 04:30:59;;;;;;;0.00;0.00;;;;;;;10.56;59.15;102794.28;5049350;28;20108;-80
2022/05/09 04:33:25;;;;;;;0.63;0.63;;;;;;;10.57;59.29;102793.44;5046458;28;20030;-79
2022/05/09 04:35:52;;;;;;;0.20;0.20;;;;;;;10.57;58.90;102785.47;5050706;28;20025;-79
2022/05/09 04:38:22;;;;;;;0.10;0.10;;;;;;;10.59;58.97;102791.69;5042636;28;20407;-79
2022/05/09 04:40:51;;;;;;;0.10;0.10;;;;;;;10.60;58.63;102789.94;5048918;28;20029;-80
2022/05/09 04:43:20;;;;;;;0.57;0.57;;;;;;;10.61;59.03;102784.63;5052088;28;20030;-80
2022/05/09 04:45:48;;;;;;;0.10;0.10;;;;;;;10.63;59.03;102787.28;5041745;28;20083;-80
2022/05/09 04:48:15;;;;;;;0.08;0.08;;;;;;;10.64;59.20;102787.34;5048679;28;20108;-80
2022/05/09 04:50:42;;;;;;;0.00;0.00;;;;;;;10.63;59.40;102782.91;5047047;28;20104;-79
2022/05/09 04:53:08;;;;;;;0.03;0.03;;;;;;;10.64;59.09;102781.13;5051924;28;20108;-80
2022/05/09 04:55:34;;;;;;;0.10;0.10;;;;;;;10.67;59.16;102781.16;5045102;28;20037;-80
2022/05/09 04:58:00;;;;;;;0.03;0.03;;;;;;;10.68;59.31;102781.19;5045226;28;20043;-79
2022/05/09 05:00:27;;;;;;;0.10;0.10;;;;;;;10.72;58.74;102782.09;5048814;28;20120;-80
2022/05/09 05:02:54;;;;;;;0.10;0.10;;;;;;;10.73;59.47;102777.69;5048261;28;20166;-79
2022/05/09 05:05:22;;;;;;;0.10;0.10;;;;;;;10.79;58.69;102783.03;5049718;28;20025;-80
2022/05/09 05:07:48;;;;;;;0.10;0.10;;;;;;;10.80;59.13;102780.44;5052206;28;20024;-80
2022/05/09 05:10:15;;;;;;;0.10;0.10;;;;;;;10.81;59.86;102771.59;5036319;28;20535;-80
2022/05/09 05:12:42;;;;;;;0.10;0.10;;;;;;;10.85;59.41;102775.16;5043558;28;20025;-81
2022/05/09 05:15:08;;;;;;;0.10;0.10;;;;;;;10.87;59.53;102781.38;5049260;28;20033;-79
2022/05/09 05:17:36;;;;;;;0.10;0.10;;;;;;;10.90;59.43;102776.09;5046288;28;20028;-79
2022/05/09 05:20:04;;;;;;;0.05;0.05;;;;;;;10.94;59.36;102777.91;5069844;28;20047;-80
2022/05/09 05:22:34;;;;;;;0.10;0.10;;;;;;;10.96;59.41;102776.16;5060053;28;20029;-79
2022/05/09 05:25:00;;;;;;;0.10;0.10;;;;;;;11.00;58.92;102777.97;5056776;28;20033;-78
2022/05/09 05:27:26;;;;;;;0.10;0.10;;;;;;;11.03;59.05;102786.81;5041094;28;20033;-79
2022/05/09 05:29:57;;;;;;;0.40;0.40;;;;;;;11.07;59.22;102786.00;5048330;28;20038;-79
2022/05/09 05:32:26;;;;;;;0.10;0.10;;;;;;;11.11;59.19;102774.53;5043776;28;20029;-79
2022/05/09 05:34:53;;;;;;;0.00;0.00;;;;;;;11.14;59.25;102774.53;5041880;28;20056;-79
2022/05/09 05:37:20;;;;;;;0.20;0.20;;;;;;;11.18;59.58;102773.69;5045883;28;20032;-79
2022/05/09 05:39:47;;;;;;;0.10;0.10;;;;;;;11.25;59.44;102772.88;5053898;28;20044;-79
2022/05/09 05:42:17;;;;;;;0.10;0.10;;;;;;;11.28;59.54;102772.91;5048893;28;20026;-78
2022/05/09 05:44:44;;;;;;;0.10;0.10;;;;;;;11.29;59.61;102773.78;5037091;28;20052;-80
2022/05/09 05:47:13;;;;;;;0.00;0.00;;;;;;;11.32;59.28;102774.69;5042193;28;20033;-80
2022/05/09 05:49:40;;;;;;;0.00;0.00;;;;;;;11.34;59.43;102766.75;5053495;28;20115;-79
2022/05/09 05:52:08;;;;;;;0.08;0.08;;;;;;;11.37;59.61;102779.16;5052862;28;20033;-79
2022/05/09 05:54:36;;;;;;;0.10;0.10;;;;;;;11.39;59.65;102775.63;5053264;28;20514;-79
2022/05/09 05:57:04;;;;;;;0.00;0.00;;;;;;;11.46;59.62;102771.25;5053796;28;20021;-79
2022/05/09 05:59:31;;;;;;;0.10;0.10;;;;;;;11.50;59.93;102778.34;5049949;28;20556;-79
2022/05/09 06:01:57;;;;;;;4.38;1.08;;;;;;;11.57;59.51;102774.88;5044457;28;20033;-79
2022/05/09 06:04:23;;;;;;;0.55;0.35;;;;;;;11.64;59.20;102771.38;5048046;28;20039;-79
2022/05/09 06:06:49;;;;;;;0.03;0.03;;;;;;;11.73;59.16;102769.69;5048293;28;20044;-79
2022/05/09 06:09:16;;;;;;;0.10;0.10;;;;;;;11.81;59.31;102778.56;5036058;28;20101;-79
2022/05/09 06:11:43;;;;;;;0.00;0.00;;;;;;;11.90;59.24;102778.63;5046624;28;20056;-79
2022/05/09 06:14:11;;;;;;;0.10;0.10;;;;;;;11.97;58.65;102774.25;5052933;28;20077;-79
2022/05/09 06:16:37;;;;;;;0.10;0.10;;;;;;;12.02;58.77;102777.81;5052968;28;20067;-78
2022/05/09 06:19:04;;;;;;;0.00;0.00;;;;;;;12.10;58.82;102777.84;5049745;28;20453;-79
2022/05/09 06:21:37;;;;;;;0.10;0.10;;;;;;;12.16;58.65;102775.22;5043637;28;20033;-79
2022/05/09 06:24:04;;;;;;;0.10;0.10;;;;;;;12.23;58.50;102782.34;5041975;28;20044;-79
2022/05/09 06:26:31;;;;;;;0.00;0.00;;;;;;;12.33;57.76;102777.09;5049253;28;20037;-80
2022/05/09 06:28:59;;;;;;;0.85;0.85;;;;;;;12.40;58.45;102778.84;5054907;28;20410;-79
2022/05/09 06:31:25;;;;;;;0.03;0.03;;;;;;;12.48;58.34;102784.22;5055382;28;20029;-80
2022/05/09 06:33:51;;;;;;;0.00;0.00;;;;;;;12.54;57.59;102787.78;5054810;28;20043;-79
2022/05/09 06:36:17;;;;;;;0.00;0.00;;;;;;;12.64;58.17;102782.50;5049348;28;20033;-78
2022/05/09 06:38:43;;;;;;;0.08;0.08;;;;;;;12.71;57.80;102785.19;5049867;28;20045;-78
2022/05/09 06:41:10;;;;;;;0.10;0.10;;;;;;;12.81;57.39;102783.44;5054034;28;20036;-78
2022/05/09 06:43:37;;;;;;;0.00;0.00;;;;;;;12.85;57.23;102779.00;5054023;28;20082;-79
2022/05/09 06:46:03;;;;;;;0.10;0.10;;;;;;;12.98;57.40;102779.91;5052467;28;20032;-79
2022/05/09 06:48:29;;;;;;;0.10;0.10;;;;;;;13.07;57.26;102777.22;5051086;28;20087;-78
2022/05/09 06:50:55;;;;;;;0.03;0.03;;;;;;;13.15;56.61;102775.47;5054625;28;20037;-78
2022/05/09 06:53:22;;;;;;;0.00;0.00;;;;;;;13.22;55.96;102777.25;5057095;28;20029;-78
2022/05/09 06:55:49;;;;;;;0.00;0.00;;;;;;;13.32;56.58;102774.56;5049899;28;20029;-77
2022/05/09 06:58:21;;;;;;;0.10;0.10;;;;;;;13.42;56.37;102776.34;5048715;28;20044;-79
2022/05/09 07:00:47;;;;;;;0.40;0.40;;;;;;;13.50;55.84;102776.38;5052060;28;20024;-78
2022/05/09 07:03:15;;;;;;;0.00;0.00;;;;;;;13.58;55.71;102772.81;5056683;28;20029;-79
2022/05/09 07:05:45;;;;;;;0.10;0.10;;;;;;;13.65;55.45;102768.34;5044910;28;20051;-79
2022/05/09 07:08:11;;;;;;;0.10;0.10;;;;;;;13.76;55.68;102773.66;5050686;28;20483;-79
2022/05/09 07:10:38;;;;;;;0.10;0.10;;;;;;;13.84;54.90;102771.84;5045305;28;20029;-78
2022/05/09 07:13:05;;;;;;;0.10;0.10;;;;;;;13.94;54.77;102764.72;5044350;28;20045;-79
2022/05/09 07:15:33;;;;;;;0.10;0.10;;;;;;;14.07;54.59;102768.25;5047205;28;20032;-79
2022/05/09 07:18:00;;;;;;;0.10;0.10;;;;;;;14.18;54.75;102766.41;5054853;28;20033;-79
2022/05/09 07:20:27;;;;;;;0.00;0.00;;;;;;;14.29;54.50;102769.00;5052634;28;20068;-79
2022/05/09 07:22:57;;;;;;;0.10;0.10;;;;;;;14.35;53.27;102768.97;5041661;28;20033;-79
2022/05/09 07:25:24;;;;;;;0.15;0.15;;;;;;;14.48;53.34;102774.25;5052333;28;20040;-79
2022/05/09 07:27:51;;;;;;;0.52;0.52;;;;;;;14.54;53.52;102777.78;5046329;28;20025;-78
2022/05/09 07:30:20;;;;;;;0.03;0.03;;;;;;;14.63;53.05;102778.63;5045044;28;20040;-79
2022/05/09 07:32:47;;;;;;;0.10;0.10;;;;;;;14.71;52.46;102783.03;5055523;28;20080;-78
2022/05/09 07:35:16;;;;;;;0.63;0.63;;;;;;;14.81;52.64;102775.88;5048775;28;20056;-79
2022/05/09 07:37:43;;;;;;;0.00;0.00;;;;;;;14.90;52.49;102771.38;5048927;28;20033;-79
2022/05/09 07:40:12;;;;;;;0.65;0.52;;;;;;;15.00;52.86;102765.06;5054058;28;20064;-79
2022/05/09 07:42:40;;;;;;;0.00;0.00;;;;;;;15.07;53.22;102777.47;5042450;28;20483;-79
2022/05/09 07:45:07;;;;;;;0.00;0.00;;;;;;;15.22;53.11;102778.25;5050077;28;20534;-77
2022/05/09 07:47:33;;;;;;;0.00;0.00;;;;;;;15.34;52.93;102762.13;5048697;28;20017;-78
2022/05/09 07:49:59;;;;;;;0.10;0.10;;;;;;;15.44;52.97;102754.88;5051884;28;20061;-78
2022/05/09 07:52:26;;;;;;;0.10;0.10;;;;;;;15.56;52.46;102756.56;5042419;28;20025;-79
2022/05/09 07:54:52;;;;;;;0.00;0.00;;;;;;;15.67;52.18;102760.88;5050462;28;20033;-78
2022/05/09 07:57:18;;;;;;;0.03;0.03;;;;;;;15.77;51.53;102766.13;5044040;28;20021;-78
2022/05/09 07:59:44;;;;;;;0.05;0.05;;;;;;;15.92;51.87;102765.09;5053133;28;20040;-81
2022/05/09 08:02:10;;;;;;;0.00;0.00;;;;;;;16.04;51.29;102758.72;5050310;28;20029;-79
2022/05/09 08:04:36;;;;;;;0.03;0.03;;;;;;;16.11;50.96;102749.72;5042270;28;20048;-80
2022/05/09 08:07:03;;;;;;;0.10;0.10;;;;;;;16.28;51.48;102752.19;5042504;28;20325;-80
2022/05/09 08:09:29;;;;;;;0.00;0.00;;;;;;;16.41;50.79;102753.78;5045669;28;20073;-79
2022/05/09 08:11:57;;;;;;;0.00;0.00;;;;;;;16.56;51.30;102757.13;5050702;28;20511;-79
2022/05/09 08:14:24;;;;;;;0.03;0.03;;;;;;;16.70;50.91;102749.78;5043760;28;20033;-79
2022/05/09 08:16:50;;;;;;;0.00;0.00;;;;;;;16.81;50.34;102752.31;5050622;28;20033;-79
2022/05/09 08:19:17;;;;;;;0.03;0.03;;;;;;;16.93;48.88;102749.44;5044215;28;20040;-81
2022/05/09 08:21:47;;;;;;;0.47;0.40;;;;;;;17.07;49.47;102754.59;5047083;28;20066;-80
2022/05/09 08:24:14;;;;;;;0.00;0.00;;;;;;;17.20;49.30;102754.41;5042886;28;20036;-80
2022/05/09 08:26:40;;;;;;;0.10;0.10;;;;;;;17.30;49.11;102746.16;5047801;28;20491;-82
2022/05/09 08:29:07;;;;;;;0.10;0.10;;;;;;;17.48;49.56;102753.88;5053431;28;20028;-80
2022/05/09 08:31:34;;;;;;;0.43;0.43;;;;;;;17.60;49.72;102749.16;5045768;28;20120;-82
2022/05/09 08:34:00;;;;;;;0.22;0.22;;;;;;;17.74;49.45;102751.56;5047993;28;20045;-82
2022/05/09 08:36:58;;;;;;;0.10;0.10;;;;;;;17.85;48.97;102745.13;5046819;28;20061;-83
2022/05/09 08:39:14;;;;;;;0.38;0.38;;;;;;;17.98;48.88;102748.47;5039612;28;20049;-82
2022/05/09 08:42:07;;;;;;;0.00;0.00;;;;;;;18.19;48.80;102745.31;5051800;28;20037;-83
2022/05/09 08:45:02;;;;;;;0.00;0.00;;;;;;;18.41;48.30;102745.72;5048281;28;20032;-81
2022/05/09 08:50:27;;;;;;;0.52;0.52;;;;;;;18.59;46.56;102747.13;5111912;27;20403;-82
2022/05/09 08:53:01;;;;;;;0.10;0.10;;;;;;;18.73;47.67;102746.78;5111466;28;20027;-82
2022/05/09 08:55:33;;;;;;;0.00;0.00;;;;;;;18.84;47.58;102742.97;5119057;28;20028;-82
2022/05/09 08:58:03;;;;;;;;;;;;;;;19.10;47.33;102741.47;5116120;28;20498;-82
2022/05/09 09:00:31;;;;;;;0.08;0.08;;;;;;;19.08;47.43;102739.69;5111329;28;19920;-82
2022/05/09 09:03:28;;;;;;;0.08;0.08;;;;;;;19.31;46.84;102724.75;5118780;28;20016;-81
2022/05/09 09:06:00;;;;;;;0.20;0.20;;;;;;;19.35;46.89;102722.88;5119446;28;20023;-82
2022/05/09 09:11:14;;;;;;;0.30;0.30;;;;;;;19.58;45.81;102722.25;5085881;27;20137;-82
2022/05/09 09:16:28;;;;;;;0.00;0.00;;;;;;;19.82;45.68;102709.03;4998942;28;20400;-81
2022/05/09 09:21:55;;;;;;;0.00;0.00;;;;;;;20.10;45.88;102710.91;5052314;28;20411;-82
2022/05/09 09:25:01;;;;;;;0.00;0.00;;;;;;;20.28;44.02;102706.78;5060070;28;20041;-81
2022/05/09 09:27:49;;;;;;;0.10;0.10;;;;;;;20.45;44.77;102698.16;5057626;28;20033;-81
2022/05/09 09:30:21;;;;;;;0.00;0.00;;;;;;;20.52;43.84;102702.41;5056693;28;20021;-80
2022/05/09 09:32:57;;;;;;;0.10;0.10;;;;;;;20.65;41.75;102695.72;5062943;28;20041;-80
2022/05/09 09:35:51;;;;;;;0.20;0.20;;;;;;;20.88;43.88;102704.00;5056608;28;20160;-81
2022/05/09 09:38:40;;;;;;;0.05;0.05;;;;;;;20.95;43.30;102687.56;5049454;28;20032;-80
2022/05/09 09:41:34;;;;;;;0.00;0.00;;;;;;;21.14;42.77;102686.91;5044386;28;20021;-80
2022/05/09 09:44:21;;;;;;;0.45;0.45;;;;;;;21.24;41.34;102682.09;5038255;28;20030;-81
2022/05/09 09:47:24;;;;;;;0.00;0.00;;;;;;;21.34;41.39;102678.97;5048415;28;20087;-81
2022/05/09 09:50:25;;;;;;;0.10;0.10;;;;;;;21.43;40.45;102683.19;5044018;28;20025;-82
2022/05/09 09:52:54;;;;;;;0.20;0.20;;;;;;;21.45;41.07;102677.72;5040792;28;20099;-80
2022/05/09 09:55:27;;;;;;;0.00;0.00;;;;;;;21.58;40.60;102684.47;5046827;28;20033;-79
2022/05/09 09:57:55;;;;;;;8.18;0.80;;;;;;;21.68;40.67;102676.00;5042943;28;20085;-82
2022/05/09 10:03:27;;;;;;;0.00;0.00;;;;;;;21.99;39.40;102664.91;5069284;28;20404;-80
2022/05/09 10:05:55;;;;;;;0.00;0.00;;;;;;;22.04;39.01;102664.72;5053952;28;20056;-81
2022/05/09 10:11:05;;;;;;;0.00;0.00;;;;;;;22.29;38.87;102664.63;5108422;27;20400;-80
2022/05/09 10:16:22;;;;;;;0.00;0.00;;;;;;;22.47;38.62;102657.63;5112854;27;1175282;-82
2022/05/09 10:18:50;;;;;;;0.10;0.10;;;;;;;22.56;38.22;102657.22;5141920;28;20027;-82
2022/05/09 10:24:47;;;;;;;0.00;0.00;;;;;;;22.66;38.19;102649.63;5140143;28;20023;-82
2022/05/09 10:26:57;;;;;;;0.00;0.00;;;;;;;22.84;37.59;102647.97;5140018;28;19915;-81
2022/05/09 10:29:27;;;;;;;0.10;0.10;;;;;;;22.91;36.93;102641.31;5140307;28;20031;-80
2022/05/09 10:32:00;;;;;;;0.10;0.10;;;;;;;22.98;36.31;102641.06;5139841;28;20024;-82
2022/05/09 10:34:38;;;;;;;0.38;0.38;;;;;;;23.05;36.40;102639.84;5141668;28;20031;-82
2022/05/09 10:37:38;;;;;;;1.27;1.20;;;;;;;23.22;36.45;102631.88;5142565;28;20034;-81
2022/05/09 10:40:14;;;;;;;0.25;0.17;;;;;;;23.27;36.55;102624.44;5141659;28;20035;-82
2022/05/09 10:42:46;;;;;;;0.10;0.10;;;;;;;23.36;36.21;102617.72;5142209;28;20034;-82
2022/05/09 10:45:18;;;;;;;0.10;0.10;;;;;;;23.46;36.48;102618.19;5143010;28;20060;-82
2022/05/09 10:58:43;;;;;;;0.00;0.00;;;;;;;23.87;34.79;102615.34;5118690;27;20395;-81
2022/05/09 11:01:34;;;;;;;0.00;0.00;;;;;;;23.95;34.06;102608.72;5121580;28;20047;-82
2022/05/09 11:04:01;;;;;;;0.00;0.00;;;;;;;24.02;33.60;102599.34;5122104;28;20031;-82
2022/05/09 11:06:50;;;;;;;0.10;0.10;;;;;;;24.05;32.62;102599.19;5102834;28;20032;-79
2022/05/09 11:09:48;;;;;;;0.20;0.20;;;;;;;24.22;33.10;102601.94;5106473;28;20036;-81
2022/05/09 11:20:51;;;;;;;0.10;0.10;;;;;;;24.58;32.05;102589.28;5057606;28;20384;-84
2022/05/09 11:26:27;;;;;;;0.10;0.10;;;;;;;24.78;31.21;102580.16;5057812;28;20411;-80
2022/05/09 11:32:17;;;;;;;0.45;0.45;;;;;;;25.00;27.95;102592.59;5114774;27;20388;-79
2022/05/09 11:35:10;;;;;;;0.10;0.10;;;;;;;25.02;28.68;102580.69;5115580;28;20404;-80
2022/05/09 11:43:32;;;;;;;0.00;0.00;;;;;;;25.36;29.52;102577.97;5083112;27;20401;-79
2022/05/09 11:46:31;;;;;;;0.13;0.13;;;;;;;25.54;30.07;102575.22;5094897;28;20036;-80
2022/05/09 11:49:25;;;;;;;0.00;0.00;;;;;;;25.57;28.79;102583.19;5095488;28;20486;-80
2022/05/09 11:54:55;;;;;;;0.10;0.10;;;;;;;25.64;28.92;102566.44;5069789;28;20386;-78
2022/05/09 11:57:34;;;;;;;0.57;0.57;;;;;;;25.58;29.80;102558.66;5072113;28;20116;-79
2022/05/09 12:00:05;;;;;;;0.10;0.10;;;;;;;25.54;29.09;102559.81;5075493;28;20449;-78
2022/05/09 12:02:50;;;;;;;0.20;0.20;;;;;;;25.70;29.95;102550.81;5076172;28;20035;-79
2022/05/09 12:10:48;;;;;;;0.05;0.05;;;;;;;25.89;28.74;102542.47;5025877;28;20336;-80
2022/05/09 12:13:35;;;;;;;0.10;0.10;;;;;;;25.88;29.04;102535.28;5028967;28;20038;-79
2022/05/09 12:16:02;;;;;;;0.00;0.00;;;;;;;25.95;29.16;102539.38;5027065;28;20045;-80
2022/05/09 12:18:52;;;;;;;0.10;0.10;;;;;;;26.06;29.34;102538.81;5025307;28;20047;-80
2022/05/09 12:21:22;;;;;;;0.00;0.00;;;;;;;26.17;29.06;102522.72;5012668;28;20030;-79
2022/05/09 12:26:33;;;;;;;0.10;0.10;;;;;;;26.37;27.13;102524.25;5108989;27;1172452;-79
2022/05/09 12:31:53;;;;;;;0.10;0.10;;;;;;;26.50;28.10;102516.19;5131927;27;20386;-82
2022/05/09 12:34:27;;;;;;;0.10;0.10;;;;;;;26.66;26.54;102509.84;5133777;28;20027;-81
2022/05/09 12:36:53;;;;;;;0.13;0.13;;;;;;;26.76;28.14;102520.06;5134175;28;20131;-80
2022/05/09 12:39:33;;;;;;;0.15;0.15;;;;;;;26.92;24.64;102508.22;5133224;28;20402;-79
2022/05/09 12:42:01;;;;;;;0.00;0.00;;;;;;;26.85;27.07;102504.13;5133038;28;20023;-79
2022/05/09 12:44:39;;;;;;;0.10;0.10;;;;;;;26.85;24.80;102498.69;5133147;28;20428;-79
2022/05/09 12:47:09;;;;;;;0.08;0.08;;;;;;;26.87;25.37;102491.34;5133713;28;20027;-80
2022/05/09 12:49:49;;;;;;;0.00;0.00;;;;;;;26.97;25.88;102487.03;5133202;28;20547;-81
2022/05/09 12:52:24;;;;;;;0.00;0.00;;;;;;;27.09;26.33;102491.69;5133073;28;20157;-79
2022/05/09 12:57:40;;;;;;;1.23;1.08;;;;;;;27.16;26.14;102484.00;5133197;28;20035;-79
2022/05/09 13:02:46;;;;;;;0.10;0.10;;;;;;;27.38;25.52;102485.34;5093260;27;20363;-80
2022/05/09 13:05:13;;;;;;;0.20;0.20;;;;;;;27.39;26.23;102481.63;5093367;28;20032;-80
2022/05/09 13:08:00;;;;;;;0.10;0.10;;;;;;;27.55;26.92;102476.97;5093477;28;20055;-80
2022/05/09 13:10:28;;;;;;;0.00;0.00;;;;;;;27.57;25.64;102463.25;5089238;28;20021;-80